sensor_id;sensor_type;location;lat;lon;timestamp;P1;durP1;ratioP1;P2;durP2;ratioP2
10957;SDS011;5531;42.570;23.676;2022-09-03T00:00:20;5.00;;;4.28;;
10957;SDS011;5531;42.570;23.676;2022-09-03T00:02:52;6.53;;;4.22;;
10957;SDS011;5531;42.570;23.676;2022-09-03T00:05:28;4.70;;;4.20;;
10957;SDS011;5531;42.570;23.676;2022-09-03T00:08:05;5.57;;;4.40;;
10957;SDS011;5531;42.570;23.676;2022-09-03T00:10:45;5.28;;;4.18;;
10957;SDS011;5531;42.570;23.676;2022-09-03T00:13:28;5.85;;;4.70;;
10957;SDS011;5531;42.570;23.676;2022-09-03T00:16:02;4.40;;;3.92;;
10957;SDS011;5531;42.570;23.676;2022-09-03T00:18:37;5.68;;;4.10;;
10957;SDS011;5531;42.570;23.676;2022-09-03T00:21:14;5.45;;;4.45;;
10957;SDS011;5531;42.570;23.676;2022-09-03T00:23:47;5.82;;;4.50;;
10957;SDS011;5531;42.570;23.676;2022-09-03T00:26:23;5.60;;;4.40;;
10957;SDS011;5531;42.570;23.676;2022-09-03T00:28:56;5.88;;;3.90;;
10957;SDS011;5531;42.570;23.676;2022-09-03T00:31:31;6.28;;;4.38;;
10957;SDS011;5531;42.570;23.676;2022-09-03T00:34:04;5.35;;;3.90;;
10957;SDS011;5531;42.570;23.676;2022-09-03T00:36:42;5.30;;;4.65;;
10957;SDS011;5531;42.570;23.676;2022-09-03T00:39:13;6.63;;;4.53;;
10957;SDS011;5531;42.570;23.676;2022-09-03T00:41:52;5.85;;;4.35;;
10957;SDS011;5531;42.570;23.676;2022-09-03T00:44:37;6.43;;;4.93;;
10957;SDS011;5531;42.570;23.676;2022-09-03T00:47:18;5.53;;;4.57;;
10957;SDS011;5531;42.570;23.676;2022-09-03T00:49:56;5.72;;;4.30;;
10957;SDS011;5531;42.570;23.676;2022-09-03T00:52:36;4.95;;;4.43;;
10957;SDS011;5531;42.570;23.676;2022-09-03T00:55:13;5.43;;;4.25;;
10957;SDS011;5531;42.570;23.676;2022-09-03T00:57:57;5.30;;;4.35;;
10957;SDS011;5531;42.570;23.676;2022-09-03T01:00:35;5.68;;;4.78;;
10957;SDS011;5531;42.570;23.676;2022-09-03T01:03:08;5.05;;;4.43;;
10957;SDS011;5531;42.570;23.676;2022-09-03T01:05:47;5.65;;;4.18;;
10957;SDS011;5531;42.570;23.676;2022-09-03T01:08:33;4.95;;;4.28;;
10957;SDS011;5531;42.570;23.676;2022-09-03T01:11:20;5.00;;;4.40;;
10957;SDS011;5531;42.570;23.676;2022-09-03T01:13:59;4.97;;;4.47;;
10957;SDS011;5531;42.570;23.676;2022-09-03T01:16:37;6.85;;;4.13;;
10957;SDS011;5531;42.570;23.676;2022-09-03T01:19:21;3.85;;;3.45;;
10957;SDS011;5531;42.570;23.676;2022-09-03T01:22:12;6.55;;;4.90;;
10957;SDS011;5531;42.570;23.676;2022-09-03T01:25:11;6.82;;;4.55;;
10957;SDS011;5531;42.570;23.676;2022-09-03T01:27:45;5.47;;;4.05;;
10957;SDS011;5531;42.570;23.676;2022-09-03T01:30:32;5.30;;;4.32;;
10957;SDS011;5531;42.570;23.676;2022-09-03T01:33:06;4.47;;;3.67;;
10957;SDS011;5531;42.570;23.676;2022-09-03T01:35:45;7.75;;;3.70;;
10957;SDS011;5531;42.570;23.676;2022-09-03T01:38:19;6.25;;;3.45;;
10957;SDS011;5531;42.570;23.676;2022-09-03T01:41:02;7.35;;;4.20;;
10957;SDS011;5531;42.570;23.676;2022-09-03T01:43:55;6.03;;;3.95;;
10957;SDS011;5531;42.570;23.676;2022-09-03T01:46:32;5.38;;;4.43;;
10957;SDS011;5531;42.570;23.676;2022-09-03T01:49:12;5.65;;;4.30;;
10957;SDS011;5531;42.570;23.676;2022-09-03T01:51:49;5.60;;;5.00;;
10957;SDS011;5531;42.570;23.676;2022-09-03T01:54:40;6.78;;;4.93;;
10957;SDS011;5531;42.570;23.676;2022-09-03T01:57:34;14.05;;;4.28;;
10957;SDS011;5531;42.570;23.676;2022-09-03T02:00:15;7.30;;;4.93;;
10957;SDS011;5531;42.570;23.676;2022-09-03T02:02:46;5.80;;;4.93;;
10957;SDS011;5531;42.570;23.676;2022-09-03T02:05:17;8.25;;;4.88;;
10957;SDS011;5531;42.570;23.676;2022-09-03T02:07:49;8.20;;;5.30;;
10957;SDS011;5531;42.570;23.676;2022-09-03T02:10:23;6.53;;;5.50;;
10957;SDS011;5531;42.570;23.676;2022-09-03T02:12:57;6.95;;;5.38;;
10957;SDS011;5531;42.570;23.676;2022-09-03T02:15:32;7.15;;;5.07;;
10957;SDS011;5531;42.570;23.676;2022-09-03T02:18:04;7.82;;;5.65;;
10957;SDS011;5531;42.570;23.676;2022-09-03T02:20:38;6.78;;;5.22;;
10957;SDS011;5531;42.570;23.676;2022-09-03T02:23:07;8.88;;;5.28;;
10957;SDS011;5531;42.570;23.676;2022-09-03T02:25:38;6.85;;;5.72;;
10957;SDS011;5531;42.570;23.676;2022-09-03T02:28:10;7.63;;;4.72;;
10957;SDS011;5531;42.570;23.676;2022-09-03T02:30:42;7.30;;;5.13;;
10957;SDS011;5531;42.570;23.676;2022-09-03T02:33:12;6.40;;;4.97;;
10957;SDS011;5531;42.570;23.676;2022-09-03T02:35:42;10.00;;;4.65;;
10957;SDS011;5531;42.570;23.676;2022-09-03T02:38:14;6.60;;;5.07;;
10957;SDS011;5531;42.570;23.676;2022-09-03T02:40:45;10.13;;;4.70;;
10957;SDS011;5531;42.570;23.676;2022-09-03T02:43:15;6.50;;;5.28;;
10957;SDS011;5531;42.570;23.676;2022-09-03T02:45:52;5.85;;;4.60;;
10957;SDS011;5531;42.570;23.676;2022-09-03T02:48:25;5.18;;;4.03;;
10957;SDS011;5531;42.570;23.676;2022-09-03T02:50:55;19.90;;;3.67;;
10957;SDS011;5531;42.570;23.676;2022-09-03T02:53:24;14.45;;;3.20;;
10957;SDS011;5531;42.570;23.676;2022-09-03T02:55:56;4.72;;;4.22;;
10957;SDS011;5531;42.570;23.676;2022-09-03T02:58:27;16.73;;;3.75;;
10957;SDS011;5531;42.570;23.676;2022-09-03T03:00:59;5.65;;;4.13;;
10957;SDS011;5531;42.570;23.676;2022-09-03T03:03:28;8.43;;;3.90;;
10957;SDS011;5531;42.570;23.676;2022-09-03T03:05:58;9.90;;;4.10;;
10957;SDS011;5531;42.570;23.676;2022-09-03T03:08:30;6.47;;;4.40;;
10957;SDS011;5531;42.570;23.676;2022-09-03T03:10:59;15.77;;;3.42;;
10957;SDS011;5531;42.570;23.676;2022-09-03T03:13:29;7.13;;;4.63;;
10957;SDS011;5531;42.570;23.676;2022-09-03T03:16:02;7.05;;;4.18;;
10957;SDS011;5531;42.570;23.676;2022-09-03T03:18:33;6.70;;;4.95;;
10957;SDS011;5531;42.570;23.676;2022-09-03T03:21:03;11.10;;;3.88;;
10957;SDS011;5531;42.570;23.676;2022-09-03T03:23:33;5.18;;;4.50;;
10957;SDS011;5531;42.570;23.676;2022-09-03T03:26:02;8.43;;;4.28;;
10957;SDS011;5531;42.570;23.676;2022-09-03T03:28:33;15.45;;;4.10;;
10957;SDS011;5531;42.570;23.676;2022-09-03T03:31:09;6.35;;;4.82;;
10957;SDS011;5531;42.570;23.676;2022-09-03T03:33:40;15.52;;;3.97;;
10957;SDS011;5531;42.570;23.676;2022-09-03T03:36:10;13.88;;;3.55;;
10957;SDS011;5531;42.570;23.676;2022-09-03T03:38:41;8.50;;;4.10;;
10957;SDS011;5531;42.570;23.676;2022-09-03T03:41:12;12.52;;;3.88;;
10957;SDS011;5531;42.570;23.676;2022-09-03T03:43:43;6.97;;;4.97;;
10957;SDS011;5531;42.570;23.676;2022-09-03T03:46:15;5.82;;;4.97;;
10957;SDS011;5531;42.570;23.676;2022-09-03T03:48:46;8.93;;;4.78;;
10957;SDS011;5531;42.570;23.676;2022-09-03T03:51:15;6.82;;;5.05;;
10957;SDS011;5531;42.570;23.676;2022-09-03T03:53:44;7.50;;;5.55;;
10957;SDS011;5531;42.570;23.676;2022-09-03T03:56:14;6.68;;;4.65;;
10957;SDS011;5531;42.570;23.676;2022-09-03T03:58:43;5.75;;;4.60;;
10957;SDS011;5531;42.570;23.676;2022-09-03T04:01:16;9.18;;;5.20;;
10957;SDS011;5531;42.570;23.676;2022-09-03T04:03:46;9.70;;;4.40;;
10957;SDS011;5531;42.570;23.676;2022-09-03T04:06:16;9.88;;;3.95;;
10957;SDS011;5531;42.570;23.676;2022-09-03T04:08:47;7.60;;;4.78;;
10957;SDS011;5531;42.570;23.676;2022-09-03T04:11:17;7.68;;;5.82;;
10957;SDS011;5531;42.570;23.676;2022-09-03T04:13:47;8.30;;;5.00;;
10957;SDS011;5531;42.570;23.676;2022-09-03T04:16:21;5.80;;;4.82;;
10957;SDS011;5531;42.570;23.676;2022-09-03T04:18:52;8.07;;;5.38;;
10957;SDS011;5531;42.570;23.676;2022-09-03T04:21:23;7.45;;;5.25;;
10957;SDS011;5531;42.570;23.676;2022-09-03T04:23:53;7.93;;;5.18;;
10957;SDS011;5531;42.570;23.676;2022-09-03T04:26:23;8.27;;;6.03;;
10957;SDS011;5531;42.570;23.676;2022-09-03T04:28:55;7.93;;;6.00;;
10957;SDS011;5531;42.570;23.676;2022-09-03T04:31:28;7.45;;;5.15;;
10957;SDS011;5531;42.570;23.676;2022-09-03T04:33:58;7.30;;;5.50;;
10957;SDS011;5531;42.570;23.676;2022-09-03T04:36:25;8.65;;;6.10;;
10957;SDS011;5531;42.570;23.676;2022-09-03T04:38:57;7.78;;;5.47;;
10957;SDS011;5531;42.570;23.676;2022-09-03T04:41:27;7.05;;;5.22;;
10957;SDS011;5531;42.570;23.676;2022-09-03T04:43:58;7.57;;;5.28;;
10957;SDS011;5531;42.570;23.676;2022-09-03T04:46:30;7.35;;;5.65;;
10957;SDS011;5531;42.570;23.676;2022-09-03T04:48:59;7.25;;;5.18;;
10957;SDS011;5531;42.570;23.676;2022-09-03T04:51:29;7.00;;;5.07;;
10957;SDS011;5531;42.570;23.676;2022-09-03T04:53:59;8.48;;;5.18;;
10957;SDS011;5531;42.570;23.676;2022-09-03T04:56:30;5.85;;;4.70;;
10957;SDS011;5531;42.570;23.676;2022-09-03T04:59:01;6.80;;;5.35;;
10957;SDS011;5531;42.570;23.676;2022-09-03T05:01:35;6.05;;;4.78;;
10957;SDS011;5531;42.570;23.676;2022-09-03T05:04:06;6.18;;;4.70;;
10957;SDS011;5531;42.570;23.676;2022-09-03T05:06:35;5.88;;;4.57;;
10957;SDS011;5531;42.570;23.676;2022-09-03T05:09:05;6.35;;;4.70;;
10957;SDS011;5531;42.570;23.676;2022-09-03T05:11:34;5.80;;;4.60;;
10957;SDS011;5531;42.570;23.676;2022-09-03T05:14:03;7.50;;;4.93;;
10957;SDS011;5531;42.570;23.676;2022-09-03T05:16:38;6.47;;;4.80;;
10957;SDS011;5531;42.570;23.676;2022-09-03T05:19:07;6.95;;;5.00;;
10957;SDS011;5531;42.570;23.676;2022-09-03T05:21:37;6.15;;;4.90;;
10957;SDS011;5531;42.570;23.676;2022-09-03T05:24:07;7.22;;;5.22;;
10957;SDS011;5531;42.570;23.676;2022-09-03T05:26:37;5.75;;;4.80;;
10957;SDS011;5531;42.570;23.676;2022-09-03T05:29:06;5.70;;;4.60;;
10957;SDS011;5531;42.570;23.676;2022-09-03T05:31:38;6.35;;;4.90;;
10957;SDS011;5531;42.570;23.676;2022-09-03T05:34:07;5.63;;;4.80;;
10957;SDS011;5531;42.570;23.676;2022-09-03T05:36:37;7.50;;;5.22;;
10957;SDS011;5531;42.570;23.676;2022-09-03T05:39:06;5.90;;;4.72;;
10957;SDS011;5531;42.570;23.676;2022-09-03T05:41:35;7.03;;;5.22;;
10957;SDS011;5531;42.570;23.676;2022-09-03T05:44:04;6.25;;;4.65;;
10957;SDS011;5531;42.570;23.676;2022-09-03T05:46:33;5.50;;;4.70;;
10957;SDS011;5531;42.570;23.676;2022-09-03T05:49:05;5.75;;;4.53;;
10957;SDS011;5531;42.570;23.676;2022-09-03T05:51:36;6.18;;;4.85;;
10957;SDS011;5531;42.570;23.676;2022-09-03T05:54:07;6.55;;;4.60;;
10957;SDS011;5531;42.570;23.676;2022-09-03T05:56:37;6.20;;;4.85;;
10957;SDS011;5531;42.570;23.676;2022-09-03T05:59:07;5.47;;;4.60;;
10957;SDS011;5531;42.570;23.676;2022-09-03T06:01:38;5.53;;;4.60;;
10957;SDS011;5531;42.570;23.676;2022-09-03T06:04:12;5.95;;;4.78;;
10957;SDS011;5531;42.570;23.676;2022-09-03T06:06:43;6.75;;;4.90;;
10957;SDS011;5531;42.570;23.676;2022-09-03T06:09:14;6.68;;;4.97;;
10957;SDS011;5531;42.570;23.676;2022-09-03T06:11:45;6.05;;;4.75;;
10957;SDS011;5531;42.570;23.676;2022-09-03T06:14:16;5.97;;;4.68;;
10957;SDS011;5531;42.570;23.676;2022-09-03T06:16:46;6.65;;;4.90;;
10957;SDS011;5531;42.570;23.676;2022-09-03T06:19:19;7.00;;;5.05;;
10957;SDS011;5531;42.570;23.676;2022-09-03T06:21:48;6.30;;;5.20;;
10957;SDS011;5531;42.570;23.676;2022-09-03T06:24:18;7.55;;;5.10;;
10957;SDS011;5531;42.570;23.676;2022-09-03T06:26:49;7.70;;;5.32;;
10957;SDS011;5531;42.570;23.676;2022-09-03T06:29:18;6.35;;;5.22;;
10957;SDS011;5531;42.570;23.676;2022-09-03T06:31:47;7.82;;;5.57;;
10957;SDS011;5531;42.570;23.676;2022-09-03T06:34:19;6.72;;;5.07;;
10957;SDS011;5531;42.570;23.676;2022-09-03T06:36:49;6.63;;;5.30;;
10957;SDS011;5531;42.570;23.676;2022-09-03T06:39:18;8.13;;;5.32;;
10957;SDS011;5531;42.570;23.676;2022-09-03T06:41:48;7.28;;;6.05;;
10957;SDS011;5531;42.570;23.676;2022-09-03T06:44:19;6.55;;;4.95;;
10957;SDS011;5531;42.570;23.676;2022-09-03T06:46:48;7.32;;;5.38;;
10957;SDS011;5531;42.570;23.676;2022-09-03T06:49:20;6.75;;;5.15;;
10957;SDS011;5531;42.570;23.676;2022-09-03T06:51:50;9.18;;;5.50;;
10957;SDS011;5531;42.570;23.676;2022-09-03T06:54:19;7.53;;;5.57;;
10957;SDS011;5531;42.570;23.676;2022-09-03T06:56:49;7.60;;;5.78;;
10957;SDS011;5531;42.570;23.676;2022-09-03T06:59:18;8.70;;;6.18;;
10957;SDS011;5531;42.570;23.676;2022-09-03T07:01:47;6.88;;;5.47;;
10957;SDS011;5531;42.570;23.676;2022-09-03T07:04:16;8.57;;;5.97;;
10957;SDS011;5531;42.570;23.676;2022-09-03T07:06:50;8.40;;;5.40;;
10957;SDS011;5531;42.570;23.676;2022-09-03T07:09:19;7.47;;;5.65;;
10957;SDS011;5531;42.570;23.676;2022-09-03T07:11:48;6.22;;;5.05;;
10957;SDS011;5531;42.570;23.676;2022-09-03T07:14:17;7.68;;;5.95;;
10957;SDS011;5531;42.570;23.676;2022-09-03T07:16:49;5.63;;;4.68;;
10957;SDS011;5531;42.570;23.676;2022-09-03T07:19:18;6.00;;;4.88;;
10957;SDS011;5531;42.570;23.676;2022-09-03T07:21:47;6.00;;;5.40;;
10957;SDS011;5531;42.570;23.676;2022-09-03T07:24:18;5.45;;;4.40;;
10957;SDS011;5531;42.570;23.676;2022-09-03T07:26:47;6.38;;;4.45;;
10957;SDS011;5531;42.570;23.676;2022-09-03T07:29:16;5.75;;;4.43;;
10957;SDS011;5531;42.570;23.676;2022-09-03T07:31:47;5.43;;;4.53;;
10957;SDS011;5531;42.570;23.676;2022-09-03T07:34:18;5.53;;;4.45;;
10957;SDS011;5531;42.570;23.676;2022-09-03T07:36:51;6.60;;;4.20;;
10957;SDS011;5531;42.570;23.676;2022-09-03T07:39:20;5.75;;;4.25;;
10957;SDS011;5531;42.570;23.676;2022-09-03T07:41:49;4.80;;;4.20;;
10957;SDS011;5531;42.570;23.676;2022-09-03T07:44:19;6.57;;;4.32;;
10957;SDS011;5531;42.570;23.676;2022-09-03T07:46:48;5.13;;;4.15;;
10957;SDS011;5531;42.570;23.676;2022-09-03T07:49:18;5.18;;;4.45;;
10957;SDS011;5531;42.570;23.676;2022-09-03T07:51:47;5.75;;;4.30;;
10957;SDS011;5531;42.570;23.676;2022-09-03T07:54:21;5.15;;;3.67;;
10957;SDS011;5531;42.570;23.676;2022-09-03T07:56:51;5.70;;;4.40;;
10957;SDS011;5531;42.570;23.676;2022-09-03T07:59:21;5.93;;;4.22;;
10957;SDS011;5531;42.570;23.676;2022-09-03T08:01:50;3.92;;;3.47;;
10957;SDS011;5531;42.570;23.676;2022-09-03T08:04:19;4.18;;;3.78;;
10957;SDS011;5531;42.570;23.676;2022-09-03T08:06:49;4.50;;;3.90;;
10957;SDS011;5531;42.570;23.676;2022-09-03T08:09:22;4.90;;;3.70;;
10957;SDS011;5531;42.570;23.676;2022-09-03T08:11:51;4.95;;;3.90;;
10957;SDS011;5531;42.570;23.676;2022-09-03T08:14:20;5.05;;;3.80;;
10957;SDS011;5531;42.570;23.676;2022-09-03T08:16:49;5.22;;;3.80;;
10957;SDS011;5531;42.570;23.676;2022-09-03T08:19:18;4.10;;;3.60;;
10957;SDS011;5531;42.570;23.676;2022-09-03T08:21:47;4.28;;;3.88;;
10957;SDS011;5531;42.570;23.676;2022-09-03T08:24:17;4.40;;;3.97;;
10957;SDS011;5531;42.570;23.676;2022-09-03T08:26:51;4.80;;;4.07;;
10957;SDS011;5531;42.570;23.676;2022-09-03T08:29:21;4.50;;;3.72;;
10957;SDS011;5531;42.570;23.676;2022-09-03T08:31:51;4.88;;;3.97;;
10957;SDS011;5531;42.570;23.676;2022-09-03T08:34:20;5.03;;;4.00;;
10957;SDS011;5531;42.570;23.676;2022-09-03T08:36:49;4.05;;;3.65;;
10957;SDS011;5531;42.570;23.676;2022-09-03T08:39:18;5.13;;;3.80;;
10957;SDS011;5531;42.570;23.676;2022-09-03T08:45:05;4.22;;;3.75;;
10957;SDS011;5531;42.570;23.676;2022-09-03T08:47:37;5.20;;;4.03;;
10957;SDS011;5531;42.570;23.676;2022-09-03T08:50:21;5.82;;;4.35;;
10957;SDS011;5531;42.570;23.676;2022-09-03T08:52:54;5.63;;;4.10;;
10957;SDS011;5531;42.570;23.676;2022-09-03T08:55:30;4.00;;;3.40;;
10957;SDS011;5531;42.570;23.676;2022-09-03T08:58:08;4.55;;;3.72;;
10957;SDS011;5531;42.570;23.676;2022-09-03T09:00:46;4.88;;;3.88;;
10957;SDS011;5531;42.570;23.676;2022-09-03T09:06:18;4.88;;;3.75;;
10957;SDS011;5531;42.570;23.676;2022-09-03T09:08:56;4.50;;;3.50;;
10957;SDS011;5531;42.570;23.676;2022-09-03T09:11:34;4.60;;;3.97;;
10957;SDS011;5531;42.570;23.676;2022-09-03T09:14:22;5.57;;;3.88;;
10957;SDS011;5531;42.570;23.676;2022-09-03T09:17:03;5.38;;;4.22;;
10957;SDS011;5531;42.570;23.676;2022-09-03T09:19:44;5.15;;;4.22;;
10957;SDS011;5531;42.570;23.676;2022-09-03T09:22:26;4.65;;;4.03;;
10957;SDS011;5531;42.570;23.676;2022-09-03T09:24:59;4.63;;;4.15;;
10957;SDS011;5531;42.570;23.676;2022-09-03T09:27:33;4.97;;;4.20;;
10957;SDS011;5531;42.570;23.676;2022-09-03T09:30:03;4.70;;;4.20;;
10957;SDS011;5531;42.570;23.676;2022-09-03T09:32:35;4.45;;;3.72;;
10957;SDS011;5531;42.570;23.676;2022-09-03T09:35:07;3.67;;;3.38;;
10957;SDS011;5531;42.570;23.676;2022-09-03T09:37:45;4.50;;;3.15;;
10957;SDS011;5531;42.570;23.676;2022-09-03T09:40:25;4.63;;;3.40;;
10957;SDS011;5531;42.570;23.676;2022-09-03T09:43:08;3.63;;;3.22;;
10957;SDS011;5531;42.570;23.676;2022-09-03T09:45:41;4.15;;;3.30;;
10957;SDS011;5531;42.570;23.676;2022-09-03T09:48:24;4.40;;;3.88;;
10957;SDS011;5531;42.570;23.676;2022-09-03T09:51:05;4.13;;;3.47;;
10957;SDS011;5531;42.570;23.676;2022-09-03T09:53:37;4.15;;;3.75;;
10957;SDS011;5531;42.570;23.676;2022-09-03T09:56:07;3.85;;;3.20;;
10957;SDS011;5531;42.570;23.676;2022-09-03T09:58:36;3.95;;;3.25;;
10957;SDS011;5531;42.570;23.676;2022-09-03T10:01:08;4.20;;;3.10;;
10957;SDS011;5531;42.570;23.676;2022-09-03T10:03:47;3.17;;;2.88;;
10957;SDS011;5531;42.570;23.676;2022-09-03T10:06:21;3.78;;;2.65;;
10957;SDS011;5531;42.570;23.676;2022-09-03T10:09:04;3.38;;;2.72;;
10957;SDS011;5531;42.570;23.676;2022-09-03T10:11:34;3.67;;;3.08;;
10957;SDS011;5531;42.570;23.676;2022-09-03T10:14:08;3.03;;;2.67;;
10957;SDS011;5531;42.570;23.676;2022-09-03T10:16:45;3.83;;;3.13;;
10957;SDS011;5531;42.570;23.676;2022-09-03T10:19:22;3.95;;;3.55;;
10957;SDS011;5531;42.570;23.676;2022-09-03T10:22:00;3.50;;;3.20;;
10957;SDS011;5531;42.570;23.676;2022-09-03T10:24:40;3.72;;;3.10;;
10957;SDS011;5531;42.570;23.676;2022-09-03T10:27:16;4.13;;;3.72;;
10957;SDS011;5531;42.570;23.676;2022-09-03T10:29:47;4.03;;;3.53;;
10957;SDS011;5531;42.570;23.676;2022-09-03T10:32:23;3.75;;;3.13;;
10957;SDS011;5531;42.570;23.676;2022-09-03T10:35:04;3.40;;;3.10;;
10957;SDS011;5531;42.570;23.676;2022-09-03T10:37:43;3.25;;;2.95;;
10957;SDS011;5531;42.570;23.676;2022-09-03T10:40:22;3.53;;;3.05;;
10957;SDS011;5531;42.570;23.676;2022-09-03T10:43:01;3.63;;;3.33;;
10957;SDS011;5531;42.570;23.676;2022-09-03T10:45:46;3.88;;;3.47;;
10957;SDS011;5531;42.570;23.676;2022-09-03T10:48:29;4.03;;;3.63;;
10957;SDS011;5531;42.570;23.676;2022-09-03T10:51:25;3.20;;;2.90;;
10957;SDS011;5531;42.570;23.676;2022-09-03T10:54:04;3.60;;;3.30;;
10957;SDS011;5531;42.570;23.676;2022-09-03T10:56:52;4.30;;;3.03;;
10957;SDS011;5531;42.570;23.676;2022-09-03T10:59:35;2.95;;;2.63;;
10957;SDS011;5531;42.570;23.676;2022-09-03T11:02:21;3.20;;;2.90;;
10957;SDS011;5531;42.570;23.676;2022-09-03T11:05:04;3.08;;;2.78;;
10957;SDS011;5531;42.570;23.676;2022-09-03T11:07:41;3.45;;;3.00;;
10957;SDS011;5531;42.570;23.676;2022-09-03T11:10:15;3.25;;;2.95;;
10957;SDS011;5531;42.570;23.676;2022-09-03T11:12:50;3.00;;;2.70;;
10957;SDS011;5531;42.570;23.676;2022-09-03T11:15:24;2.90;;;2.60;;
10957;SDS011;5531;42.570;23.676;2022-09-03T11:17:58;3.58;;;2.70;;
10957;SDS011;5531;42.570;23.676;2022-09-03T11:20:31;3.20;;;2.90;;
10957;SDS011;5531;42.570;23.676;2022-09-03T11:23:04;2.60;;;2.40;;
10957;SDS011;5531;42.570;23.676;2022-09-03T11:25:35;4.05;;;2.72;;
10957;SDS011;5531;42.570;23.676;2022-09-03T11:28:12;3.20;;;2.88;;
10957;SDS011;5531;42.570;23.676;2022-09-03T11:33:58;2.67;;;2.47;;
10957;SDS011;5531;42.570;23.676;2022-09-03T11:36:34;3.13;;;2.83;;
10957;SDS011;5531;42.570;23.676;2022-09-03T11:39:17;3.10;;;2.80;;
10957;SDS011;5531;42.570;23.676;2022-09-03T11:41:58;2.83;;;2.53;;
10957;SDS011;5531;42.570;23.676;2022-09-03T11:44:34;3.35;;;2.60;;
10957;SDS011;5531;42.570;23.676;2022-09-03T11:47:13;2.50;;;2.30;;
10957;SDS011;5531;42.570;23.676;2022-09-03T11:49:44;3.03;;;2.72;;
10957;SDS011;5531;42.570;23.676;2022-09-03T11:52:24;2.85;;;2.65;;
10957;SDS011;5531;42.570;23.676;2022-09-03T11:54:58;3.10;;;2.78;;
10957;SDS011;5531;42.570;23.676;2022-09-03T11:57:27;2.40;;;2.20;;
10957;SDS011;5531;42.570;23.676;2022-09-03T12:00:05;3.33;;;2.20;;
10957;SDS011;5531;42.570;23.676;2022-09-03T12:02:41;2.40;;;2.20;;
10957;SDS011;5531;42.570;23.676;2022-09-03T12:05:15;2.75;;;2.30;;
10957;SDS011;5531;42.570;23.676;2022-09-03T12:08:01;2.15;;;1.95;;
10957;SDS011;5531;42.570;23.676;2022-09-03T12:11:02;2.20;;;2.00;;
10957;SDS011;5531;42.570;23.676;2022-09-03T12:13:56;2.65;;;2.45;;
10957;SDS011;5531;42.570;23.676;2022-09-03T12:19:29;2.70;;;2.50;;
10957;SDS011;5531;42.570;23.676;2022-09-03T12:22:04;2.97;;;2.78;;
10957;SDS011;5531;42.570;23.676;2022-09-03T12:24:34;2.42;;;2.13;;
10957;SDS011;5531;42.570;23.676;2022-09-03T12:27:06;2.50;;;2.13;;
10957;SDS011;5531;42.570;23.676;2022-09-03T12:29:37;2.45;;;2.25;;
10957;SDS011;5531;42.570;23.676;2022-09-03T12:32:25;2.38;;;2.17;;
10957;SDS011;5531;42.570;23.676;2022-09-03T12:34:56;2.17;;;1.98;;
10957;SDS011;5531;42.570;23.676;2022-09-03T12:37:26;2.75;;;2.55;;
10957;SDS011;5531;42.570;23.676;2022-09-03T12:40:01;2.35;;;2.15;;
10957;SDS011;5531;42.570;23.676;2022-09-03T12:42:33;2.35;;;2.15;;
10957;SDS011;5531;42.570;23.676;2022-09-03T12:45:05;2.80;;;2.60;;
10957;SDS011;5531;42.570;23.676;2022-09-03T12:47:37;2.50;;;2.30;;
10957;SDS011;5531;42.570;23.676;2022-09-03T12:50:07;2.30;;;2.10;;
10957;SDS011;5531;42.570;23.676;2022-09-03T12:52:38;2.38;;;2.17;;
10957;SDS011;5531;42.570;23.676;2022-09-03T12:55:15;2.60;;;2.30;;
10957;SDS011;5531;42.570;23.676;2022-09-03T12:57:56;2.40;;;2.20;;
10957;SDS011;5531;42.570;23.676;2022-09-03T13:00:33;2.65;;;2.28;;
10957;SDS011;5531;42.570;23.676;2022-09-03T13:03:07;2.22;;;2.05;;
10957;SDS011;5531;42.570;23.676;2022-09-03T13:05:44;2.38;;;2.17;;
10957;SDS011;5531;42.570;23.676;2022-09-03T13:08:19;2.40;;;2.20;;
10957;SDS011;5531;42.570;23.676;2022-09-03T13:10:51;2.30;;;2.10;;
10957;SDS011;5531;42.570;23.676;2022-09-03T13:13:25;2.00;;;1.80;;
10957;SDS011;5531;42.570;23.676;2022-09-03T13:16:04;1.80;;;1.70;;
10957;SDS011;5531;42.570;23.676;2022-09-03T13:18:52;3.42;;;2.05;;
10957;SDS011;5531;42.570;23.676;2022-09-03T13:21:32;1.92;;;1.83;;
10957;SDS011;5531;42.570;23.676;2022-09-03T13:27:09;1.90;;;1.77;;
10957;SDS011;5531;42.570;23.676;2022-09-03T13:29:54;2.05;;;1.90;;
10957;SDS011;5531;42.570;23.676;2022-09-03T13:32:35;1.85;;;1.65;;
10957;SDS011;5531;42.570;23.676;2022-09-03T13:35:10;2.20;;;2.00;;
10957;SDS011;5531;42.570;23.676;2022-09-03T13:37:45;1.90;;;1.80;;
10957;SDS011;5531;42.570;23.676;2022-09-03T13:40:22;1.67;;;1.58;;
10957;SDS011;5531;42.570;23.676;2022-09-03T13:43:00;1.77;;;1.67;;
10957;SDS011;5531;42.570;23.676;2022-09-03T13:45:43;1.80;;;1.70;;
10957;SDS011;5531;42.570;23.676;2022-09-03T13:48:19;1.98;;;1.77;;
10957;SDS011;5531;42.570;23.676;2022-09-03T13:51:06;1.90;;;1.80;;
10957;SDS011;5531;42.570;23.676;2022-09-03T13:53:43;1.77;;;1.67;;
10957;SDS011;5531;42.570;23.676;2022-09-03T13:56:20;1.90;;;1.77;;
10957;SDS011;5531;42.570;23.676;2022-09-03T13:59:04;2.25;;;2.05;;
10957;SDS011;5531;42.570;23.676;2022-09-03T14:01:49;2.05;;;1.85;;
10957;SDS011;5531;42.570;23.676;2022-09-03T14:04:32;2.28;;;2.03;;
10957;SDS011;5531;42.570;23.676;2022-09-03T14:07:12;1.92;;;1.80;;
10957;SDS011;5531;42.570;23.676;2022-09-03T14:09:50;1.95;;;1.80;;
10957;SDS011;5531;42.570;23.676;2022-09-03T14:12:29;2.85;;;2.08;;
10957;SDS011;5531;42.570;23.676;2022-09-03T14:15:09;1.90;;;1.80;;
10957;SDS011;5531;42.570;23.676;2022-09-03T14:17:50;1.98;;;1.80;;
10957;SDS011;5531;42.570;23.676;2022-09-03T14:20:27;1.80;;;1.70;;
10957;SDS011;5531;42.570;23.676;2022-09-03T14:22:59;2.28;;;2.08;;
10957;SDS011;5531;42.570;23.676;2022-09-03T14:25:32;2.40;;;1.90;;
10957;SDS011;5531;42.570;23.676;2022-09-03T14:28:13;2.30;;;2.10;;
10957;SDS011;5531;42.570;23.676;2022-09-03T14:30:54;2.30;;;2.10;;
10957;SDS011;5531;42.570;23.676;2022-09-03T14:33:36;2.65;;;1.90;;
10957;SDS011;5531;42.570;23.676;2022-09-03T14:36:15;2.00;;;1.90;;
10957;SDS011;5531;42.570;23.676;2022-09-03T14:38:59;2.15;;;1.95;;
10957;SDS011;5531;42.570;23.676;2022-09-03T14:41:47;2.10;;;1.90;;
10957;SDS011;5531;42.570;23.676;2022-09-03T14:44:45;2.20;;;2.00;;
10957;SDS011;5531;42.570;23.676;2022-09-03T14:47:28;2.30;;;2.10;;
10957;SDS011;5531;42.570;23.676;2022-09-03T14:50:17;2.22;;;2.03;;
10957;SDS011;5531;42.570;23.676;2022-09-03T14:53:17;2.35;;;2.15;;
10957;SDS011;5531;42.570;23.676;2022-09-03T14:59:12;2.15;;;1.95;;
10957;SDS011;5531;42.570;23.676;2022-09-03T15:02:14;2.42;;;1.90;;
10957;SDS011;5531;42.570;23.676;2022-09-03T15:05:05;2.50;;;2.30;;
10957;SDS011;5531;42.570;23.676;2022-09-03T15:07:47;2.10;;;1.90;;
10957;SDS011;5531;42.570;23.676;2022-09-03T15:10:21;1.90;;;1.80;;
10957;SDS011;5531;42.570;23.676;2022-09-03T15:13:06;2.17;;;2.03;;
10957;SDS011;5531;42.570;23.676;2022-09-03T15:15:44;2.30;;;2.10;;
10957;SDS011;5531;42.570;23.676;2022-09-03T15:18:31;2.35;;;2.15;;
10957;SDS011;5531;42.570;23.676;2022-09-03T15:21:16;2.47;;;2.28;;
10957;SDS011;5531;42.570;23.676;2022-09-03T15:23:59;2.65;;;2.45;;
10957;SDS011;5531;42.570;23.676;2022-09-03T15:26:41;2.60;;;2.40;;
10957;SDS011;5531;42.570;23.676;2022-09-03T15:32:19;2.78;;;2.55;;
10957;SDS011;5531;42.570;23.676;2022-09-03T15:35:03;2.30;;;2.10;;
10957;SDS011;5531;42.570;23.676;2022-09-03T15:37:39;3.15;;;2.50;;
10957;SDS011;5531;42.570;23.676;2022-09-03T15:40:22;2.55;;;2.35;;
10957;SDS011;5531;42.570;23.676;2022-09-03T15:42:57;2.78;;;2.58;;
10957;SDS011;5531;42.570;23.676;2022-09-03T15:45:36;2.10;;;2.00;;
10957;SDS011;5531;42.570;23.676;2022-09-03T15:48:18;2.45;;;2.25;;
10957;SDS011;5531;42.570;23.676;2022-09-03T15:50:54;2.50;;;2.30;;
10957;SDS011;5531;42.570;23.676;2022-09-03T15:53:35;2.55;;;2.35;;
10957;SDS011;5531;42.570;23.676;2022-09-03T15:56:17;2.80;;;2.50;;